createdAt,value
2018-06-13T00:00:03.195Z,91.90
2018-06-13T00:02:31.369Z,91.90
2018-06-13T00:04:59.441Z,92.00
2018-06-13T00:07:27.534Z,91.90
2018-06-13T00:09:55.605Z,91.80
2018-06-13T00:12:23.710Z,91.90
2018-06-13T00:14:51.877Z,91.50
2018-06-13T00:17:19.961Z,91.60
2018-06-13T00:19:48.058Z,91.50
2018-06-13T00:22:16.234Z,91.30
2018-06-13T00:24:44.327Z,91.20
2018-06-13T00:27:12.403Z,91.70
2018-06-13T00:32:09.494Z,91.70
2018-06-13T00:37:05.712Z,91.50
2018-06-13T00:39:33.862Z,91.60
2018-06-13T00:42:01.955Z,91.70
2018-06-13T00:44:30.136Z,91.80
2018-06-13T00:46:58.209Z,91.50
2018-06-13T00:49:26.302Z,91.60
2018-06-13T00:51:54.379Z,91.20
2018-06-13T00:54:22.474Z,91.80
2018-06-13T00:56:50.646Z,91.90
2018-06-13T00:59:18.746Z,91.60
2018-06-13T01:01:46.955Z,91.90
2018-06-13T01:04:15.114Z,91.70
2018-06-13T01:06:43.198Z,91.50
2018-06-13T01:09:11.281Z,92.00
2018-06-13T01:11:39.353Z,91.80
2018-06-13T01:14:07.459Z,91.90
2018-06-13T01:16:35.630Z,91.70
2018-06-13T01:21:31.713Z,92.00
2018-06-13T01:23:59.902Z,91.90
2018-06-13T01:26:28.070Z,91.90
2018-06-13T01:28:56.157Z,92.00
2018-06-13T01:31:24.248Z,91.90
2018-06-13T01:33:52.439Z,92.30
2018-06-13T01:36:26.571Z,92.10
2018-06-13T01:38:54.782Z,92.40
2018-06-13T01:41:22.927Z,92.60
2018-06-13T01:43:51.013Z,92.70
2018-06-13T01:46:19.090Z,92.70
2018-06-13T01:51:15.158Z,92.20
2018-06-13T01:53:44.154Z,92.10
2018-06-13T01:56:12.284Z,92.50
2018-06-13T01:58:40.473Z,92.30
2018-06-13T02:01:08.658Z,92.10
2018-06-13T02:03:36.850Z,92.20
2018-06-13T02:06:05.035Z,92.50
2018-06-13T02:08:33.251Z,92.40
2018-06-13T02:11:01.403Z,92.60
2018-06-13T02:13:29.505Z,92.50
2018-06-13T02:15:57.666Z,92.70
2018-06-13T02:18:25.861Z,92.50
2018-06-13T02:20:54.061Z,92.60
2018-06-13T02:23:22.246Z,92.80
2018-06-13T02:25:50.442Z,92.80
2018-06-13T02:28:18.672Z,93.00
2018-06-13T02:30:46.819Z,92.60
2018-06-13T02:33:14.981Z,92.90
2018-06-13T02:35:43.180Z,92.60
2018-06-13T02:38:11.354Z,92.60
2018-06-13T02:40:39.550Z,93.00
2018-06-13T02:43:07.734Z,93.20
2018-06-13T02:45:35.938Z,93.10
2018-06-13T02:48:04.106Z,93.10
2018-06-13T02:50:32.297Z,93.00
2018-06-13T02:53:00.583Z,92.70
2018-06-13T02:55:28.777Z,93.30
2018-06-13T02:57:56.963Z,93.20
2018-06-13T03:00:25.162Z,93.40
2018-06-13T03:02:53.271Z,93.60
2018-06-13T03:05:21.742Z,93.60
2018-06-13T03:07:49.910Z,93.80
2018-06-13T03:10:18.110Z,93.80
2018-06-13T03:12:46.282Z,93.70
2018-06-13T03:15:14.470Z,93.80
2018-06-13T03:17:42.674Z,93.90
2018-06-13T03:20:10.793Z,94.20
2018-06-13T03:22:38.929Z,94.00
2018-06-13T03:25:07.118Z,93.70
2018-06-13T03:27:35.300Z,93.60
2018-06-13T03:30:03.514Z,93.80
2018-06-13T03:32:31.673Z,93.90
2018-06-13T03:34:59.790Z,94.10
2018-06-13T03:37:27.941Z,94.00
2018-06-13T03:39:56.139Z,93.90
2018-06-13T03:42:24.350Z,94.20
2018-06-13T03:44:52.522Z,94.20
2018-06-13T03:47:20.689Z,94.10
2018-06-13T03:49:48.885Z,94.00
2018-06-13T03:52:17.066Z,94.10
2018-06-13T03:54:45.263Z,94.10
2018-06-13T03:57:13.454Z,94.00
2018-06-13T03:59:42.658Z,94.00
2018-06-13T04:02:10.834Z,94.20
2018-06-13T04:04:39.040Z,94.40
2018-06-13T04:07:07.252Z,94.40
2018-06-13T04:09:35.405Z,94.10
2018-06-13T04:12:03.586Z,94.40
2018-06-13T04:14:31.795Z,94.30
2018-06-13T04:16:59.958Z,94.30
2018-06-13T04:19:28.158Z,94.30
2018-06-13T04:21:56.330Z,94.30
2018-06-13T04:24:24.541Z,94.40
2018-06-13T04:26:52.714Z,94.60
2018-06-13T04:29:20.894Z,94.30
2018-06-13T04:31:49.076Z,94.40
2018-06-13T04:34:17.246Z,94.20
2018-06-13T04:36:45.493Z,94.10
2018-06-13T04:39:13.614Z,94.20
2018-06-13T04:41:41.810Z,93.90
2018-06-13T04:44:09.986Z,93.90
2018-06-13T04:46:38.078Z,93.80
2018-06-13T04:49:06.246Z,93.40
2018-06-13T04:51:34.346Z,92.90
2018-06-13T04:54:02.519Z,92.10
2018-06-13T04:58:58.494Z,92.10
2018-06-13T05:01:26.586Z,92.40
2018-06-13T05:03:54.894Z,91.90
2018-06-13T05:06:23.058Z,91.90
2018-06-13T05:08:51.230Z,91.90
2018-06-13T05:11:19.322Z,91.70
2018-06-13T05:13:47.416Z,91.90
2018-06-13T05:16:15.594Z,91.50
2018-06-13T05:18:43.684Z,91.00
2018-06-13T05:21:11.871Z,91.30
2018-06-13T05:23:40.054Z,91.00
2018-06-13T05:26:08.138Z,91.00
2018-06-13T05:28:36.218Z,91.20
2018-06-13T05:31:04.314Z,91.00
2018-06-13T05:33:32.498Z,91.20
2018-06-13T05:36:00.689Z,91.70
2018-06-13T05:38:29.026Z,91.00
2018-06-13T05:40:57.157Z,90.80
2018-06-13T05:43:25.341Z,90.60
2018-06-13T05:45:53.430Z,90.60
2018-06-13T05:48:21.730Z,90.50
2018-06-13T05:50:49.912Z,90.80
2018-06-13T05:53:18.090Z,90.60
2018-06-13T05:55:46.177Z,91.30
2018-06-13T05:58:14.354Z,90.60
2018-06-13T06:01:45.962Z,90.40
2018-06-13T06:04:14.142Z,90.20
2018-06-13T06:06:42.310Z,90.20
2018-06-13T06:09:10.398Z,90.30
2018-06-13T06:11:38.492Z,90.20
2018-06-13T06:14:06.558Z,90.60
2018-06-13T06:16:34.663Z,90.70
2018-06-13T06:19:02.836Z,90.00
2018-06-13T06:21:30.926Z,89.20
2018-06-13T06:23:59.110Z,90.20
2018-06-13T06:26:27.194Z,90.20
2018-06-13T06:28:55.286Z,89.80
2018-06-13T06:31:23.362Z,90.30
2018-06-13T06:33:51.967Z,90.80
2018-06-13T06:36:20.181Z,90.00
2018-06-13T06:38:48.358Z,89.70
2018-06-13T06:41:16.458Z,87.10
2018-06-13T06:43:44.622Z,87.20
2018-06-13T06:46:12.818Z,87.20
2018-06-13T06:48:41.001Z,88.40
2018-06-13T06:51:09.194Z,87.90
2018-06-13T06:53:37.374Z,87.10
2018-06-13T06:56:05.651Z,86.30
2018-06-13T06:58:33.742Z,86.50
2018-06-13T07:01:01.938Z,86.60
2018-06-13T07:03:30.122Z,86.90
2018-06-13T07:05:58.318Z,86.90
2018-06-13T07:08:26.502Z,87.80
2018-06-13T07:10:54.606Z,87.30
2018-06-13T07:13:22.778Z,86.90
2018-06-13T07:15:50.960Z,87.90
2018-06-13T07:18:19.137Z,88.30
2018-06-13T07:20:47.334Z,87.90
2018-06-13T07:23:15.518Z,87.60
2018-06-13T07:25:43.703Z,87.20
2018-06-13T07:28:11.890Z,86.40
2018-06-13T07:30:40.086Z,86.80
2018-06-13T07:33:08.183Z,84.50
2018-06-13T07:35:36.349Z,83.20
2018-06-13T07:38:04.533Z,83.90
2018-06-13T07:40:32.722Z,83.50
2018-06-13T07:43:00.919Z,83.70
2018-06-13T07:45:29.094Z,84.20
2018-06-13T07:47:57.286Z,84.10
2018-06-13T07:50:25.473Z,82.90
2018-06-13T07:52:53.654Z,84.20
2018-06-13T07:55:21.843Z,81.10
2018-06-13T07:57:50.043Z,82.20
2018-06-13T08:00:18.222Z,81.40
2018-06-13T08:02:46.410Z,82.50
2018-06-13T08:05:14.582Z,81.90
2018-06-13T08:07:42.790Z,82.00
2018-06-13T08:10:10.958Z,84.30
2018-06-13T08:12:39.151Z,85.20
2018-06-13T08:15:07.365Z,84.70
2018-06-13T08:17:35.521Z,85.90
2018-06-13T08:20:03.714Z,83.90
2018-06-13T08:22:31.821Z,82.30
2018-06-13T08:24:59.982Z,83.30
2018-06-13T08:27:28.185Z,82.90
2018-06-13T08:29:56.357Z,84.10
2018-06-13T08:32:24.550Z,84.30
2018-06-13T08:34:52.725Z,85.80
2018-06-13T08:37:20.925Z,84.20
2018-06-13T08:39:49.138Z,85.80
2018-06-13T08:42:17.292Z,83.30
2018-06-13T08:44:45.474Z,83.90
2018-06-13T08:47:13.670Z,83.30
2018-06-13T08:49:42.874Z,83.70
2018-06-13T08:52:11.066Z,83.30
2018-06-13T08:54:39.241Z,85.00
2018-06-13T08:57:07.441Z,86.90
2018-06-13T08:59:35.609Z,84.70
2018-06-13T09:02:03.853Z,86.00
2018-06-13T09:04:31.998Z,86.20
2018-06-13T09:07:00.194Z,84.20
2018-06-13T09:09:28.371Z,85.70
2018-06-13T09:11:56.570Z,85.60
2018-06-13T09:14:24.739Z,83.80
2018-06-13T09:16:52.938Z,85.40
2018-06-13T09:19:21.116Z,86.80
2018-06-13T09:21:49.305Z,87.60
2018-06-13T09:24:17.575Z,85.40
2018-06-13T09:26:45.726Z,85.70
2018-06-13T09:31:41.963Z,86.40
2018-06-13T09:34:10.134Z,84.90
2018-06-13T09:36:38.342Z,83.20
2018-06-13T09:39:07.286Z,83.10
2018-06-13T09:41:39.782Z,81.30
2018-06-13T09:44:07.899Z,82.10
2018-06-13T09:46:36.094Z,83.40
2018-06-13T09:49:04.286Z,82.30
2018-06-13T09:51:32.462Z,81.60
2018-06-13T09:54:00.642Z,80.90
2018-06-13T09:56:28.830Z,81.30
2018-06-13T09:59:02.611Z,80.10
2018-06-13T10:01:36.346Z,82.10
2018-06-13T10:04:04.620Z,81.60
2018-06-13T10:09:00.721Z,80.50
2018-06-13T10:11:28.910Z,79.20
2018-06-13T10:13:57.101Z,79.90
2018-06-13T10:16:25.286Z,80.50
2018-06-13T10:18:53.479Z,76.90
2018-06-13T10:21:21.654Z,75.80
2018-06-13T10:23:49.850Z,75.90
2018-06-13T10:26:18.030Z,75.30
2018-06-13T10:28:46.219Z,78.20
2018-06-13T10:31:14.407Z,79.30
2018-06-13T10:33:42.490Z,79.60
2018-06-13T10:36:10.655Z,81.60
2018-06-13T10:38:38.770Z,81.50
2018-06-13T10:41:06.921Z,80.60
2018-06-13T10:46:02.981Z,83.40
2018-06-13T10:50:59.056Z,82.80
2018-06-13T10:53:27.150Z,82.60
2018-06-13T10:55:55.319Z,82.30
2018-06-13T10:58:23.423Z,82.10
2018-06-13T11:00:51.489Z,80.90
2018-06-13T11:03:19.577Z,79.20
2018-06-13T11:05:47.662Z,76.00
2018-06-13T11:08:15.763Z,77.70
2018-06-13T11:10:43.928Z,77.70
2018-06-13T11:13:12.028Z,76.50
2018-06-13T11:15:40.198Z,73.90
2018-06-13T11:18:08.278Z,74.70
2018-06-13T11:20:36.383Z,74.00
2018-06-13T11:23:04.466Z,74.50
2018-06-13T11:25:32.646Z,76.70
2018-06-13T11:28:00.739Z,72.60
2018-06-13T11:30:28.918Z,72.60
2018-06-13T11:35:24.984Z,74.00
2018-06-13T11:37:53.070Z,74.00
2018-06-13T11:40:21.241Z,71.70
2018-06-13T11:45:17.327Z,75.30
2018-06-13T11:47:45.542Z,71.90
2018-06-13T11:50:13.709Z,75.40
2018-06-13T11:52:41.886Z,75.70
2018-06-13T11:55:10.071Z,76.00
2018-06-13T11:57:38.147Z,76.80
2018-06-13T12:00:06.366Z,76.50
2018-06-13T12:02:34.668Z,74.70
2018-06-13T12:05:02.951Z,74.20
2018-06-13T12:07:31.138Z,73.80
2018-06-13T12:09:59.304Z,77.10
2018-06-13T12:12:27.478Z,75.00
2018-06-13T12:14:55.565Z,73.20
2018-06-13T12:17:23.641Z,74.30
2018-06-13T12:19:51.727Z,72.50
2018-06-13T12:22:19.828Z,73.20
2018-06-13T12:24:48.011Z,77.30
2018-06-13T12:27:16.181Z,72.60
2018-06-13T12:29:44.279Z,70.30
2018-06-13T12:32:12.346Z,74.20
2018-06-13T12:34:40.445Z,76.00
2018-06-13T12:37:08.531Z,71.30
2018-06-13T12:39:36.629Z,70.90
2018-06-13T12:42:04.807Z,71.90
2018-06-13T12:44:32.985Z,71.90
2018-06-13T12:47:01.070Z,73.60
2018-06-13T12:49:29.162Z,75.10
2018-06-13T12:51:57.233Z,76.10
2018-06-13T12:54:25.339Z,74.40
2018-06-13T12:56:53.710Z,76.40
2018-06-13T12:59:21.782Z,76.10
2018-06-13T13:01:49.882Z,75.90
2018-06-13T13:04:17.977Z,76.60
2018-06-13T13:06:46.160Z,73.60
2018-06-13T13:09:14.346Z,74.40
2018-06-13T13:11:42.975Z,74.80
2018-06-13T13:14:11.142Z,77.90
2018-06-13T13:16:39.315Z,76.00
2018-06-13T13:19:07.501Z,76.80
2018-06-13T13:21:35.682Z,75.90
2018-06-13T13:24:03.778Z,76.20
2018-06-13T13:26:31.959Z,74.90
2018-06-13T13:29:00.074Z,77.20
2018-06-13T13:31:28.230Z,77.90
2018-06-13T13:33:56.441Z,77.50
2018-06-13T13:36:24.626Z,76.00
2018-06-13T13:38:52.853Z,78.00
2018-06-13T13:41:21.002Z,77.00
2018-06-13T13:43:49.189Z,76.90
2018-06-13T13:46:17.374Z,76.90
2018-06-13T13:48:45.579Z,78.50
2018-06-13T13:51:13.742Z,79.60
2018-06-13T13:53:41.940Z,78.30
2018-06-13T13:56:10.109Z,78.00
2018-06-13T13:58:38.310Z,80.30
2018-06-13T14:01:06.622Z,78.70
2018-06-13T14:03:34.785Z,78.20
2018-06-13T14:06:03.182Z,77.40
2018-06-13T14:08:31.369Z,76.80
2018-06-13T14:10:59.546Z,77.60
2018-06-13T14:13:27.739Z,77.10
2018-06-13T14:15:55.942Z,78.70
2018-06-13T14:18:24.113Z,75.70
2018-06-13T14:20:52.310Z,76.10
2018-06-13T14:23:20.473Z,75.70
2018-06-13T14:25:48.682Z,75.80
2018-06-13T14:28:16.855Z,77.70
2018-06-13T14:30:45.045Z,79.70
2018-06-13T14:33:13.221Z,77.60
2018-06-13T14:35:41.426Z,78.10
2018-06-13T14:38:10.631Z,77.80
2018-06-13T14:40:38.823Z,77.60
2018-06-13T14:43:07.934Z,77.90
2018-06-13T14:45:36.121Z,77.50
2018-06-13T14:48:04.294Z,76.20
2018-06-13T14:50:32.542Z,76.40
2018-06-13T14:53:00.672Z,77.10
2018-06-13T14:55:28.862Z,76.30
2018-06-13T14:57:57.042Z,77.10
2018-06-13T15:00:25.234Z,80.00
2018-06-13T15:02:53.419Z,78.60
2018-06-13T15:05:21.627Z,79.10
2018-06-13T15:07:49.885Z,78.60
2018-06-13T15:10:17.998Z,80.70
2018-06-13T15:12:46.187Z,82.50
2018-06-13T15:15:14.368Z,80.50
2018-06-13T15:17:42.533Z,79.80
2018-06-13T15:20:10.726Z,78.30
2018-06-13T15:22:38.918Z,77.60
2018-06-13T15:25:07.102Z,79.20
2018-06-13T15:27:35.283Z,77.70
2018-06-13T15:30:03.508Z,80.10
2018-06-13T15:32:31.706Z,78.90
2018-06-13T15:34:59.849Z,80.10
2018-06-13T15:37:28.032Z,79.20
2018-06-13T15:39:56.148Z,78.40
2018-06-13T15:42:24.306Z,76.70
2018-06-13T15:44:52.507Z,77.30
2018-06-13T15:47:20.686Z,80.70
2018-06-13T15:49:48.862Z,80.00
2018-06-13T15:52:17.052Z,81.20
2018-06-13T15:54:45.239Z,80.80
2018-06-13T15:57:13.422Z,81.50
2018-06-13T15:59:42.529Z,80.60
2018-06-13T16:02:10.710Z,81.10
2018-06-13T16:04:38.909Z,80.60
2018-06-13T16:07:07.103Z,81.10
2018-06-13T16:09:35.389Z,81.50
2018-06-13T16:12:03.570Z,82.70
2018-06-13T16:14:31.756Z,82.10
2018-06-13T16:16:59.945Z,81.60
2018-06-13T16:19:28.191Z,82.10
2018-06-13T16:21:56.318Z,82.30
2018-06-13T16:24:24.494Z,82.50
2018-06-13T16:26:52.703Z,81.00
2018-06-13T16:29:20.878Z,82.10
2018-06-13T16:31:49.070Z,76.90
2018-06-13T16:34:17.246Z,79.20
2018-06-13T16:36:45.495Z,81.90
2018-06-13T16:39:13.618Z,80.70
2018-06-13T16:41:41.818Z,78.10
2018-06-13T16:44:10.071Z,77.70
2018-06-13T16:46:38.209Z,77.60
2018-06-13T16:49:06.398Z,78.40
2018-06-13T16:51:55.697Z,77.30
2018-06-13T16:54:35.318Z,77.10
2018-06-13T16:57:03.530Z,78.00
2018-06-13T16:59:31.682Z,79.00
2018-06-13T17:01:59.881Z,78.50
2018-06-13T17:04:28.058Z,79.90
2018-06-13T17:06:56.306Z,77.90
2018-06-13T17:09:24.431Z,77.10
2018-06-13T17:11:52.626Z,78.90
2018-06-13T17:14:20.798Z,77.30
2018-06-13T17:16:48.998Z,80.10
2018-06-13T17:19:17.210Z,79.20
2018-06-13T17:21:45.431Z,79.60
2018-06-13T17:24:13.569Z,79.90
2018-06-13T17:26:41.750Z,79.30
2018-06-13T17:29:09.921Z,78.00
2018-06-13T17:31:38.122Z,77.30
2018-06-13T17:34:06.318Z,78.10
2018-06-13T17:36:34.494Z,78.00
2018-06-13T17:39:02.703Z,78.20
2018-06-13T17:41:30.861Z,77.10
2018-06-13T17:43:59.056Z,77.10
2018-06-13T17:46:27.242Z,78.30
2018-06-13T17:48:55.434Z,79.20
2018-06-13T17:51:23.622Z,78.30
2018-06-13T17:53:51.819Z,78.20
2018-06-13T17:56:20.001Z,79.40
2018-06-13T17:58:48.167Z,78.90
2018-06-13T18:01:16.358Z,78.60
2018-06-13T18:03:44.572Z,79.70
2018-06-13T18:06:12.757Z,79.80
2018-06-13T18:08:40.914Z,80.00
2018-06-13T18:11:09.106Z,80.00
2018-06-13T18:13:37.285Z,80.10
2018-06-13T18:16:05.503Z,81.70
2018-06-13T18:18:33.686Z,81.00
2018-06-13T18:21:01.847Z,80.80
2018-06-13T18:23:30.058Z,81.00
2018-06-13T18:25:58.441Z,80.50
2018-06-13T18:28:26.622Z,80.80
2018-06-13T18:30:54.818Z,81.30
2018-06-13T18:33:22.990Z,82.30
2018-06-13T18:35:51.177Z,80.30
2018-06-13T18:38:19.358Z,80.40
2018-06-13T18:40:47.563Z,82.30
2018-06-13T18:43:15.729Z,80.60
2018-06-13T18:45:43.924Z,80.40
2018-06-13T18:48:12.215Z,82.00
2018-06-13T18:50:40.389Z,81.60
2018-06-13T18:53:08.606Z,81.50
2018-06-13T18:55:37.094Z,81.50
2018-06-13T18:58:05.274Z,81.30
2018-06-13T19:00:33.425Z,81.80
2018-06-13T19:03:01.514Z,82.10
2018-06-13T19:05:29.698Z,82.00
2018-06-13T19:07:57.793Z,81.30
2018-06-13T19:10:25.970Z,83.40
2018-06-13T19:12:54.058Z,82.60
2018-06-13T19:15:22.246Z,82.70
2018-06-13T19:17:50.329Z,83.70
2018-06-13T19:20:18.509Z,83.40
2018-06-13T19:22:46.733Z,83.70
2018-06-13T19:25:14.894Z,84.00
2018-06-13T19:27:42.970Z,84.20
2018-06-13T19:30:11.054Z,84.80
2018-06-13T19:32:39.251Z,84.70
2018-06-13T19:35:07.450Z,84.70
2018-06-13T19:37:35.553Z,85.80
2018-06-13T19:40:04.654Z,85.90
2018-06-13T19:42:32.921Z,85.90
2018-06-13T19:47:34.688Z,86.20
2018-06-13T19:50:02.822Z,86.10
2018-06-13T19:52:36.358Z,85.80
2018-06-13T19:55:09.993Z,85.10
2018-06-13T19:57:38.134Z,84.20
2018-06-13T20:00:06.322Z,84.30
2018-06-13T20:03:40.765Z,84.20
2018-06-13T20:06:09.480Z,85.10
2018-06-13T20:08:37.783Z,85.90
2018-06-13T20:11:06.101Z,86.20
2018-06-13T20:13:39.670Z,86.80
2018-06-13T20:16:13.358Z,86.60
2018-06-13T20:18:47.123Z,86.90
2018-06-13T20:21:15.270Z,86.10
2018-06-13T20:23:44.094Z,87.10
2018-06-13T20:27:18.791Z,87.00
2018-06-13T20:29:52.521Z,86.60
2018-06-13T20:32:20.639Z,86.60
2018-06-13T20:34:48.821Z,87.50
2018-06-13T20:37:17.005Z,87.70
2018-06-13T20:39:45.151Z,88.60
2018-06-13T20:42:13.333Z,89.30
2018-06-13T20:44:41.484Z,90.90
2018-06-13T20:47:09.653Z,91.30
2018-06-13T20:49:37.847Z,91.20
2018-06-13T20:52:06.025Z,91.60
2018-06-13T20:54:34.221Z,91.50
2018-06-13T20:57:02.436Z,91.30
2018-06-13T20:59:30.618Z,91.40
2018-06-13T21:01:58.774Z,91.30
2018-06-13T21:04:26.968Z,91.50
2018-06-13T21:06:55.162Z,91.40
2018-06-13T21:09:23.342Z,91.50
2018-06-13T21:11:51.519Z,91.80
2018-06-13T21:14:19.701Z,91.80
2018-06-13T21:16:47.886Z,91.50
2018-06-13T21:19:16.094Z,91.50
2018-06-13T21:21:44.259Z,91.20
2018-06-13T21:24:12.461Z,91.00
2018-06-13T21:26:40.719Z,91.20
2018-06-13T21:29:08.839Z,91.30
2018-06-13T21:31:37.029Z,91.40
2018-06-13T21:34:05.274Z,91.60
2018-06-13T21:36:33.390Z,91.70
2018-06-13T21:39:01.618Z,91.60
2018-06-13T21:41:29.814Z,91.80
2018-06-13T21:43:57.993Z,91.80
2018-06-13T21:46:26.147Z,91.80
2018-06-13T21:48:54.330Z,92.10
2018-06-13T21:51:22.433Z,92.20
2018-06-13T21:53:50.611Z,92.40
2018-06-13T21:56:18.810Z,92.40
2018-06-13T21:58:46.977Z,92.30
2018-06-13T22:01:15.210Z,92.30
2018-06-13T22:03:43.345Z,92.80
2018-06-13T22:06:11.542Z,92.70
2018-06-13T22:08:39.714Z,92.60
2018-06-13T22:11:08.138Z,92.40
2018-06-13T22:13:36.341Z,92.50
2018-06-13T22:16:04.494Z,92.70
2018-06-13T22:18:32.661Z,92.80
2018-06-13T22:21:00.865Z,92.70
2018-06-13T22:23:29.041Z,92.70
2018-06-13T22:25:57.234Z,92.90
2018-06-13T22:28:25.418Z,93.00
2018-06-13T22:30:53.622Z,93.00
2018-06-13T22:33:21.753Z,92.90
2018-06-13T22:35:49.855Z,92.70
2018-06-13T22:38:18.026Z,92.70
2018-06-13T22:40:46.127Z,92.90
2018-06-13T22:43:14.317Z,92.60
2018-06-13T22:45:42.399Z,92.30
2018-06-13T22:48:10.570Z,92.50
2018-06-13T22:50:38.706Z,92.10
2018-06-13T22:53:06.785Z,92.10
2018-06-13T22:55:34.962Z,92.30
2018-06-13T22:58:03.370Z,92.50
2018-06-13T23:01:10.170Z,93.00
2018-06-13T23:03:38.298Z,92.80
2018-06-13T23:06:07.562Z,93.00
2018-06-13T23:08:36.459Z,93.30
2018-06-13T23:11:04.741Z,93.30
2018-06-13T23:13:32.898Z,93.50
2018-06-13T23:16:00.995Z,93.60
2018-06-13T23:18:29.718Z,93.60
2018-06-13T23:20:58.007Z,93.80
2018-06-13T23:23:26.178Z,93.90
2018-06-13T23:25:55.299Z,93.70
2018-06-13T23:28:23.694Z,94.10
2018-06-13T23:30:51.878Z,94.00
2018-06-13T23:33:20.062Z,94.00
2018-06-13T23:35:48.213Z,93.80
2018-06-13T23:38:16.750Z,93.90
2018-06-13T23:40:45.134Z,94.00
2018-06-13T23:43:13.294Z,93.90
2018-06-13T23:45:41.489Z,93.80
2018-06-13T23:48:09.666Z,93.90
2018-06-13T23:50:37.743Z,93.90
2018-06-13T23:53:05.837Z,93.90
2018-06-13T23:55:34.014Z,93.50
2018-06-13T23:58:02.081Z,93.40
